Time;durP1;ratioP1;P1;durP2;ratioP2;P2;SDS_P1;SDS_P2;PMS_P1;PMS_P2;Temp;Humidity;BMP_temperature;BMP_pressure;BME280_temperature;BME280_humidity;BME280_pressure;Samples;Min_cycle;Max_cycle;Signal;HPM_P1;HPM_P2
2022/01/10 00:02:38;;;;;;;34.30;24.00;;;2.60;96.30;;;;;;6262235;28;20493;-63
2022/01/10 00:05:41;;;;;;;30.73;23.63;;;2.60;96.20;;;;;;6261818;28;20560;-64
2022/01/10 00:08:45;;;;;;;35.50;25.03;;;2.60;96.20;;;;;;6248400;28;20475;-64
2022/01/10 00:11:49;;;;;;;29.53;22.97;;;2.60;96.40;;;;;;6248693;28;20471;-64
2022/01/10 00:14:52;;;;;;;33.67;23.90;;;2.60;96.30;;;;;;6248570;28;20475;-64
2022/01/10 00:17:55;;;;;;;34.90;24.17;;;2.70;96.30;;;;;;6248391;28;20474;-64
2022/01/10 00:20:58;;;;;;;28.10;22.27;;;2.80;96.20;;;;;;6249249;28;20874;-64
2022/01/10 00:24:02;;;;;;;31.83;23.30;;;2.70;96.20;;;;;;6250272;28;21024;-64
2022/01/10 00:27:06;;;;;;;30.07;24.10;;;2.80;96.20;;;;;;6250044;28;20802;-64
2022/01/10 00:30:11;;;;;;;29.20;23.47;;;2.80;96.10;;;;;;6250613;28;20540;-63
2022/01/10 00:33:14;;;;;;;33.60;24.00;;;2.80;96.00;;;;;;6250942;28;20475;-63
2022/01/10 00:36:17;;;;;;;30.30;24.20;;;2.70;96.00;;;;;;6250544;28;20471;-63
2022/01/10 00:39:20;;;;;;;32.63;24.17;;;2.80;96.10;;;;;;6250712;28;20474;-64
2022/01/10 00:42:25;;;;;;;34.70;23.63;;;2.80;96.00;;;;;;6250368;28;21005;-64
2022/01/10 00:45:29;;;;;;;31.20;23.77;;;2.80;96.00;;;;;;6250742;28;20502;-64
2022/01/10 00:48:32;;;;;;;30.03;24.20;;;2.80;96.10;;;;;;6250419;28;20475;-64
2022/01/10 00:51:36;;;;;;;30.83;23.53;;;2.70;96.00;;;;;;6250763;28;20486;-64
2022/01/10 00:54:39;;;;;;;33.87;24.27;;;2.70;95.90;;;;;;6246238;28;20474;-64
2022/01/10 00:57:44;;;;;;;34.53;26.17;;;2.70;96.00;;;;;;6250065;28;20483;-64
2022/01/10 01:00:47;;;;;;;36.70;28.57;;;2.80;96.00;;;;;;6250586;28;20479;-64
2022/01/10 01:03:51;;;;;;;43.43;29.30;;;2.80;96.00;;;;;;6250443;28;20475;-64
2022/01/10 01:06:54;;;;;;;39.57;28.13;;;2.80;95.90;;;;;;6251428;28;20467;-64
2022/01/10 01:10:11;;;;;;;41.80;27.70;;;2.90;95.90;;;;;;6251147;28;20486;-64
2022/01/10 01:13:25;;;;;;;30.50;24.60;;;2.90;96.00;;;;;;6251610;28;20451;-64
2022/01/10 01:16:43;;;;;;;37.53;26.20;;;2.80;95.80;;;;;;6255929;28;20423;-63
2022/01/10 01:20:06;;;;;;;36.93;26.13;;;2.80;95.90;;;;;;6255376;28;20470;-63
2022/01/10 01:26:34;;;;;;;37.20;27.13;;;2.80;95.90;;;;;;6255031;28;20471;-64
2022/01/10 01:29:39;;;;;;;29.90;25.03;;;2.90;95.90;;;;;;6254792;28;20474;-64
2022/01/10 01:32:42;;;;;;;27.13;22.70;;;2.90;95.90;;;;;;6255049;28;20471;-64
2022/01/10 01:35:45;;;;;;;28.37;22.47;;;2.90;95.90;;;;;;6255029;28;20831;-64
2022/01/10 01:38:49;;;;;;;34.47;24.93;;;2.90;95.90;;;;;;6253401;28;21869;-64
2022/01/10 01:42:00;;;;;;;30.57;24.57;;;2.80;95.90;;;;;;6253603;28;20475;-64
2022/01/10 01:45:06;;;;;;;29.63;23.70;;;2.80;95.80;;;;;;6254616;28;20475;-64
2022/01/10 01:48:10;;;;;;;33.03;26.10;;;2.80;95.80;;;;;;6254502;28;20505;-64
2022/01/10 01:51:13;;;;;;;31.23;23.13;;;2.80;95.90;;;;;;6254508;28;20479;-63
2022/01/10 01:54:17;;;;;;;30.47;23.40;;;2.80;95.70;;;;;;6254965;28;20467;-64
2022/01/10 01:57:21;;;;;;;30.03;22.80;;;2.80;95.80;;;;;;6254403;28;20966;-64
2022/01/10 02:00:25;;;;;;;31.10;23.10;;;2.80;96.00;;;;;;6249772;28;20958;-64
2022/01/10 02:03:29;;;;;;;30.00;24.17;;;2.80;96.00;;;;;;6254107;28;20483;-64
2022/01/10 02:06:33;;;;;;;31.93;22.80;;;2.80;95.90;;;;;;6254106;28;20475;-64
2022/01/10 02:09:36;;;;;;;27.53;23.77;;;2.80;95.80;;;;;;6253575;28;20474;-64
2022/01/10 02:12:39;;;;;;;27.07;23.07;;;2.80;95.60;;;;;;6253819;28;20471;-64
2022/01/10 02:15:48;;;;;;;36.17;24.40;;;2.70;95.70;;;;;;6253349;28;20958;-64
2022/01/10 02:18:51;;;;;;;28.50;22.50;;;2.70;95.70;;;;;;6253396;28;20471;-64
2022/01/10 02:21:56;;;;;;;26.83;22.87;;;2.70;95.70;;;;;;6253119;28;20474;-64
2022/01/10 02:24:59;;;;;;;33.00;24.50;;;2.70;95.80;;;;;;6252515;28;20516;-64
2022/01/10 02:28:02;;;;;;;26.70;23.30;;;2.70;95.90;;;;;;6253188;28;20463;-64
2022/01/10 02:31:07;;;;;;;26.73;23.80;;;2.60;95.90;;;;;;6252800;28;20494;-64
2022/01/10 02:34:15;;;;;;;29.53;24.57;;;2.60;96.00;;;;;;6253063;28;20613;-64
2022/01/10 02:37:34;;;;;;;33.63;24.80;;;2.60;95.90;;;;;;6252651;28;20470;-64
2022/01/10 02:40:37;;;;;;;29.00;23.00;;;2.60;96.00;;;;;;6252896;28;20463;-64
2022/01/10 02:43:40;;;;;;;36.73;26.00;;;2.60;95.70;;;;;;6251124;28;21017;-64
2022/01/10 02:46:44;;;;;;;30.20;25.40;;;2.60;96.00;;;;;;6252261;28;20465;-64
2022/01/10 02:49:48;;;;;;;28.47;23.70;;;2.60;96.10;;;;;;6252002;28;20851;-64
2022/01/10 02:52:52;;;;;;;30.53;23.80;;;2.60;96.20;;;;;;6252125;28;20482;-64
2022/01/10 02:55:55;;;;;;;32.07;24.33;;;2.60;96.10;;;;;;6252492;28;20475;-64
2022/01/10 02:58:59;;;;;;;30.60;23.40;;;2.70;96.10;;;;;;6252867;28;20459;-64
2022/01/10 03:02:02;;;;;;;30.60;23.93;;;2.60;96.10;;;;;;6247915;28;20485;-64
2022/01/10 03:05:07;;;;;;;31.27;24.83;;;2.60;96.20;;;;;;6252413;28;20493;-65
2022/01/10 03:08:11;;;;;;;26.70;23.20;;;2.60;96.20;;;;;;6253048;28;20468;-64
2022/01/10 03:11:14;;;;;;;35.33;25.60;;;2.60;96.30;;;;;;6252205;28;20826;-64
2022/01/10 03:14:18;;;;;;;32.67;24.50;;;2.60;96.30;;;;;;6255529;28;20479;-64
2022/01/10 03:17:21;;;;;;;32.60;25.53;;;2.60;96.40;;;;;;6254060;28;21029;-64
2022/01/10 03:20:24;;;;;;;32.00;24.50;;;2.60;96.30;;;;;;6253663;28;20978;-64
2022/01/10 03:23:29;;;;;;;35.50;25.40;;;2.60;96.20;;;;;;6253250;28;20463;-64
2022/01/10 03:26:32;;;;;;;29.07;24.87;;;2.60;96.30;;;;;;6251929;28;20985;-64
2022/01/10 03:29:35;;;;;;;30.63;23.60;;;2.60;96.20;;;;;;6251399;28;20966;-64
2022/01/10 03:32:39;;;;;;;31.00;23.50;;;2.60;96.30;;;;;;6250844;28;20466;-64
2022/01/10 03:35:42;;;;;;;32.97;23.80;;;2.60;96.30;;;;;;6250014;28;20482;-64
2022/01/10 03:38:46;;;;;;;28.80;22.90;;;2.60;96.30;;;;;;6252221;28;20479;-64
2022/01/10 03:41:49;;;;;;;33.93;24.87;;;2.60;96.30;;;;;;6251613;28;20462;-64
2022/01/10 03:44:53;;;;;;;29.93;24.27;;;2.60;96.30;;;;;;6251177;28;20786;-64
2022/01/10 03:47:56;;;;;;;31.60;24.77;;;2.60;96.40;;;;;;6251428;28;20471;-64
2022/01/10 03:50:59;;;;;;;32.60;24.17;;;2.60;96.30;;;;;;6252111;28;20479;-64
2022/01/10 03:54:03;;;;;;;34.13;26.70;;;2.70;96.30;;;;;;6252462;28;20490;-64
2022/01/10 03:57:07;;;;;;;33.63;27.20;;;2.60;96.20;;;;;;6252690;28;20478;-64
2022/01/10 04:00:11;;;;;;;35.87;26.80;;;2.70;96.30;;;;;;6252625;28;20482;-64
2022/01/10 04:03:14;;;;;;;36.73;25.70;;;2.60;96.30;;;;;;6252270;28;20486;-65
2022/01/10 04:06:17;;;;;;;33.50;24.07;;;2.60;96.40;;;;;;6247759;28;20474;-65
2022/01/10 04:09:22;;;;;;;30.67;23.77;;;2.60;96.30;;;;;;6253958;28;20490;-65
2022/01/10 04:12:25;;;;;;;30.33;24.03;;;2.70;96.40;;;;;;6254211;28;20525;-65
2022/01/10 04:15:28;;;;;;;28.97;23.37;;;2.70;96.40;;;;;;6253492;28;21001;-65
2022/01/10 04:18:31;;;;;;;35.87;23.00;;;2.70;96.30;;;;;;6253859;28;20490;-65
2022/01/10 04:21:34;;;;;;;29.40;22.87;;;2.70;96.30;;;;;;6250788;28;20802;-64
2022/01/10 04:24:39;;;;;;;24.90;22.20;;;2.70;96.30;;;;;;6250753;28;20479;-64
2022/01/10 04:27:43;;;;;;;27.40;22.97;;;2.70;96.40;;;;;;6250857;28;20537;-64
2022/01/10 04:30:46;;;;;;;26.40;21.30;;;2.70;96.30;;;;;;6250440;28;20485;-64
2022/01/10 04:33:49;;;;;;;26.27;20.77;;;2.50;96.30;;;;;;6250307;28;20478;-64
2022/01/10 04:36:52;;;;;;;36.60;24.20;;;2.60;96.50;;;;;;6250003;28;20475;-63
2022/01/10 04:39:57;;;;;;;33.87;22.57;;;2.50;96.80;;;;;;6250211;28;20537;-63
2022/01/10 04:43:00;;;;;;;26.70;23.03;;;2.50;96.50;;;;;;6249985;28;20486;-63
2022/01/10 04:46:03;;;;;;;25.37;21.37;;;2.60;96.70;;;;;;6249909;28;20486;-63
2022/01/10 04:49:12;;;;;;;29.70;24.50;;;2.60;96.70;;;;;;6249465;28;20578;-63
2022/01/10 04:52:15;;;;;;;35.03;24.60;;;2.50;96.60;;;;;;6250046;28;20489;-63
2022/01/10 04:55:20;;;;;;;35.87;25.30;;;2.60;96.70;;;;;;6249585;28;20903;-63
2022/01/10 04:58:24;;;;;;;29.87;24.00;;;2.60;96.70;;;;;;6249900;28;20427;-63
2022/01/10 05:01:27;;;;;;;28.00;22.83;;;2.60;96.60;;;;;;6249993;28;20916;-64
2022/01/10 05:04:30;;;;;;;32.23;22.67;;;2.60;96.60;;;;;;6249416;28;20486;-63
2022/01/10 05:07:33;;;;;;;29.37;23.63;;;2.60;96.50;;;;;;6245079;28;20825;-63
2022/01/10 05:10:38;;;;;;;28.80;22.20;;;2.60;96.50;;;;;;6249936;28;20479;-63
2022/01/10 05:13:41;;;;;;;28.77;23.13;;;2.60;96.50;;;;;;6249688;28;20462;-63
2022/01/10 05:16:45;;;;;;;28.93;21.40;;;2.60;96.50;;;;;;6250152;28;20463;-63
2022/01/10 05:19:48;;;;;;;29.93;23.57;;;2.60;96.50;;;;;;6249705;28;20470;-63
2022/01/10 05:22:51;;;;;;;26.17;21.20;;;2.60;96.50;;;;;;6249859;28;20462;-64
2022/01/10 05:25:55;;;;;;;25.83;22.00;;;2.60;96.50;;;;;;6249776;28;20798;-63
2022/01/10 05:28:59;;;;;;;26.83;21.40;;;2.50;96.70;;;;;;6249717;28;20463;-63
2022/01/10 05:32:02;;;;;;;27.03;21.43;;;2.60;96.70;;;;;;6249851;28;20492;-63
2022/01/10 05:35:07;;;;;;;28.87;21.43;;;2.60;97.00;;;;;;6249282;28;20597;-63
2022/01/10 05:38:10;;;;;;;25.73;21.03;;;2.50;96.70;;;;;;6249064;28;20955;-63
2022/01/10 05:41:14;;;;;;;24.93;20.10;;;2.60;96.70;;;;;;6249174;28;20471;-63
2022/01/10 05:44:18;;;;;;;25.90;20.83;;;2.60;96.70;;;;;;6249473;28;20474;-63
2022/01/10 05:47:21;;;;;;;24.70;20.90;;;2.50;96.60;;;;;;6249742;28;20475;-63
2022/01/10 05:50:34;;;;;;;26.70;21.33;;;2.50;96.60;;;;;;6249668;28;20482;-63
2022/01/10 05:53:37;;;;;;;28.50;22.03;;;2.50;96.70;;;;;;6249592;28;20803;-63
2022/01/10 05:56:41;;;;;;;27.20;23.70;;;2.50;96.80;;;;;;6249053;28;20478;-63
2022/01/10 05:59:44;;;;;;;30.17;23.20;;;2.50;96.70;;;;;;6249480;28;20482;-63
2022/01/10 06:02:49;;;;;;;25.33;22.27;;;2.60;96.80;;;;;;6252793;28;20479;-63
2022/01/10 06:05:52;;;;;;;34.30;22.60;;;2.50;96.70;;;;;;6252207;28;20466;-63
2022/01/10 06:08:55;;;;;;;29.60;23.70;;;2.50;96.80;;;;;;6252232;28;20474;-63
2022/01/10 06:11:59;;;;;;;24.70;20.27;;;2.40;97.20;;;;;;6251888;28;20993;-63
2022/01/10 06:15:03;;;;;;;25.93;23.07;;;2.40;97.00;;;;;;6247704;28;20800;-63
2022/01/10 06:18:06;;;;;;;30.30;21.47;;;2.40;97.10;;;;;;6252458;28;20479;-63
2022/01/10 06:21:09;;;;;;;32.53;23.23;;;2.40;97.10;;;;;;6253478;28;20471;-63
2022/01/10 06:24:12;;;;;;;27.00;23.20;;;2.40;97.10;;;;;;6253481;28;20489;-63
2022/01/10 06:27:17;;;;;;;34.57;24.30;;;2.40;97.10;;;;;;6253103;28;20478;-63
2022/01/10 06:30:20;;;;;;;30.60;24.20;;;2.40;97.20;;;;;;6252968;28;20466;-63
2022/01/10 06:33:23;;;;;;;34.60;24.40;;;2.40;97.20;;;;;;6252719;28;21022;-63
2022/01/10 06:36:26;;;;;;;28.90;23.90;;;2.50;97.30;;;;;;6253160;28;20490;-63
2022/01/10 06:39:30;;;;;;;30.17;23.20;;;2.40;97.20;;;;;;6252747;28;20474;-63
2022/01/10 06:42:35;;;;;;;28.27;23.27;;;2.50;97.40;;;;;;6252608;28;20467;-63
2022/01/10 06:45:38;;;;;;;31.00;24.90;;;2.50;97.30;;;;;;6253044;28;20475;-63
2022/01/10 06:48:41;;;;;;;26.93;22.53;;;2.50;97.30;;;;;;6252529;28;20966;-63
2022/01/10 06:51:50;;;;;;;32.20;24.70;;;2.40;97.30;;;;;;6251835;28;20467;-63
2022/01/10 06:54:53;;;;;;;26.73;22.03;;;2.50;97.40;;;;;;6252041;28;20474;-64
2022/01/10 06:57:58;;;;;;;32.23;24.47;;;2.50;97.40;;;;;;6252203;28;20505;-63
2022/01/10 07:01:01;;;;;;;26.77;21.27;;;2.50;97.30;;;;;;6252325;28;20485;-63
2022/01/10 07:04:05;;;;;;;27.30;21.40;;;2.50;97.30;;;;;;6252036;28;20483;-64
2022/01/10 07:07:08;;;;;;;27.93;21.60;;;2.50;97.10;;;;;;6252300;28;20489;-63
2022/01/10 07:10:12;;;;;;;33.10;23.10;;;2.60;97.50;;;;;;6252452;28;20489;-63
2022/01/10 07:13:16;;;;;;;25.83;21.83;;;2.50;97.20;;;;;;6251520;28;20467;-64
2022/01/10 07:16:19;;;;;;;30.83;23.73;;;2.50;97.20;;;;;;6247492;28;20523;-64
2022/01/10 07:19:23;;;;;;;33.67;25.10;;;2.60;97.30;;;;;;6252729;28;21051;-65
2022/01/10 07:22:27;;;;;;;33.87;22.37;;;2.60;97.30;;;;;;6252960;28;20549;-63
2022/01/10 07:25:31;;;;;;;27.73;22.57;;;2.70;97.10;;;;;;6252476;28;20443;-65
2022/01/10 07:28:35;;;;;;;28.40;21.07;;;2.70;96.90;;;;;;6252110;28;20455;-63
2022/01/10 07:31:39;;;;;;;26.20;21.47;;;2.80;96.70;;;;;;6251828;28;20784;-64
2022/01/10 07:34:42;;;;;;;30.47;20.20;;;2.90;96.80;;;;;;6252198;28;20741;-63
2022/01/10 07:37:45;;;;;;;25.90;20.17;;;3.00;96.50;;;;;;6251329;28;20959;-63
2022/01/10 07:40:49;;;;;;;29.00;21.07;;;3.00;96.40;;;;;;6251591;28;20467;-63
2022/01/10 07:43:56;;;;;;;29.70;21.87;;;3.10;96.20;;;;;;6252475;28;20458;-64
2022/01/10 07:46:59;;;;;;;26.50;21.23;;;3.20;96.00;;;;;;6251485;28;20477;-63
2022/01/10 07:50:04;;;;;;;27.43;22.37;;;3.30;96.10;;;;;;6251621;28;20477;-63
2022/01/10 07:53:07;;;;;;;24.23;19.43;;;3.40;95.90;;;;;;6248366;28;20474;-63
2022/01/10 07:56:11;;;;;;;22.47;19.47;;;3.40;95.60;;;;;;6244376;28;20490;-63
2022/01/10 07:59:16;;;;;;;24.00;19.40;;;3.50;95.70;;;;;;6251264;28;20475;-62
2022/01/10 08:02:20;;;;;;;24.00;20.07;;;3.60;95.50;;;;;;6251600;28;20467;-62
2022/01/10 08:05:24;;;;;;;28.73;21.27;;;3.70;95.20;;;;;;6250741;28;20479;-62
2022/01/10 08:08:28;;;;;;;25.13;22.43;;;3.90;95.20;;;;;;6251125;28;20471;-62
2022/01/10 08:11:31;;;;;;;25.47;19.90;;;4.10;95.00;;;;;;6251129;28;20509;-63
2022/01/10 08:14:36;;;;;;;24.17;20.10;;;4.20;94.40;;;;;;6251942;28;20467;-62
2022/01/10 08:17:39;;;;;;;26.37;21.17;;;4.30;94.20;;;;;;6251507;28;20966;-62
2022/01/10 08:20:42;;;;;;;30.03;22.63;;;4.40;94.10;;;;;;6250780;28;20475;-62
2022/01/10 08:23:47;;;;;;;24.73;22.00;;;4.60;93.60;;;;;;6250206;28;20560;-62
2022/01/10 08:26:50;;;;;;;32.17;25.10;;;4.60;93.60;;;;;;6250699;28;20773;-62
2022/01/10 08:29:54;;;;;;;29.83;23.30;;;4.70;93.20;;;;;;6251166;28;20479;-61
2022/01/10 08:32:57;;;;;;;29.43;24.47;;;4.80;93.10;;;;;;6250437;28;20524;-62
2022/01/10 08:36:01;;;;;;;31.90;26.70;;;4.80;92.80;;;;;;6250812;28;20481;-62
2022/01/10 08:39:05;;;;;;;35.60;27.77;;;4.70;93.50;;;;;;6250642;28;20481;-61
2022/01/10 08:42:08;;;;;;;31.23;25.60;;;4.90;93.40;;;;;;6250493;28;20962;-63
2022/01/10 08:45:13;;;;;;;28.27;24.57;;;5.10;93.00;;;;;;6249754;28;20467;-63
2022/01/10 08:48:17;;;;;;;30.50;24.50;;;5.40;92.90;;;;;;6249852;28;20482;-62
2022/01/10 08:51:20;;;;;;;28.40;24.10;;;5.70;92.20;;;;;;6249809;28;20463;-62
2022/01/10 08:54:24;;;;;;;35.57;25.43;;;5.80;91.40;;;;;;6249720;28;20471;-62
2022/01/10 08:57:27;;;;;;;30.57;25.27;;;5.90;90.90;;;;;;6262972;28;20480;-63
2022/01/10 09:00:33;;;;;;;31.00;24.20;;;5.90;90.90;;;;;;6263565;28;20475;-63
2022/01/10 09:03:37;;;;;;;31.17;25.53;;;6.10;90.80;;;;;;6246536;28;20485;-63
2022/01/10 09:06:40;;;;;;;29.90;24.90;;;6.20;90.80;;;;;;6250122;28;20470;-63
2022/01/10 09:09:44;;;;;;;27.87;24.80;;;6.20;90.40;;;;;;6250164;28;20474;-63
2022/01/10 09:12:47;;;;;;;33.27;24.27;;;6.30;90.60;;;;;;6249232;28;20463;-63
2022/01/10 09:15:52;;;;;;;30.87;24.50;;;6.40;90.20;;;;;;6249579;28;20990;-62
2022/01/10 09:18:56;;;;;;;31.60;26.00;;;6.50;89.90;;;;;;6249066;28;20467;-64
2022/01/10 09:21:59;;;;;;;33.37;24.60;;;6.60;90.00;;;;;;6249194;28;20525;-64
2022/01/10 09:25:02;;;;;;;32.93;24.03;;;6.70;88.80;;;;;;6249046;28;20818;-63
2022/01/10 09:28:06;;;;;;;28.73;25.30;;;6.90;88.00;;;;;;6240063;28;20482;-64
2022/01/10 09:31:11;;;;;;;36.43;27.13;;;7.10;87.60;;;;;;6248953;28;20501;-63
2022/01/10 09:34:14;;;;;;;32.77;26.37;;;7.40;85.70;;;;;;6250511;28;20471;-63
2022/01/10 09:37:17;;;;;;;32.93;25.50;;;7.50;85.00;;;;;;6254257;28;20475;-64
2022/01/10 09:40:22;;;;;;;29.97;25.70;;;7.50;84.60;;;;;;6254367;28;20462;-64
2022/01/10 09:43:25;;;;;;;30.10;25.77;;;7.40;84.70;;;;;;6253481;28;20509;-64
2022/01/10 09:46:32;;;;;;;32.97;27.63;;;7.40;85.00;;;;;;6254191;28;20438;-63
2022/01/10 09:49:36;;;;;;;34.53;26.70;;;7.60;84.40;;;;;;6253257;28;20796;-62
2022/01/10 09:52:40;;;;;;;34.20;26.70;;;7.90;84.70;;;;;;6253392;28;20463;-64
2022/01/10 09:55:43;;;;;;;35.20;27.63;;;8.20;83.00;;;;;;6254707;28;20462;-64
2022/01/10 09:58:47;;;;;;;30.03;25.97;;;8.10;82.30;;;;;;6254502;28;20471;-65
2022/01/10 10:01:53;;;;;;;33.07;25.67;;;8.10;81.10;;;;;;6253741;28;20462;-64
2022/01/10 10:04:56;;;;;;;34.43;25.47;;;8.30;81.20;;;;;;6247175;28;21013;-64
2022/01/10 10:08:00;;;;;;;30.33;25.20;;;8.10;81.70;;;;;;6254726;28;20467;-63
2022/01/10 10:11:03;;;;;;;28.30;22.27;;;8.20;80.80;;;;;;6254240;28;20494;-65
2022/01/10 10:14:08;;;;;;;30.00;23.53;;;8.10;80.80;;;;;;6253391;28;20745;-64
2022/01/10 10:17:20;;;;;;;25.67;22.40;;;8.30;80.80;;;;;;6250577;28;20969;-65
2022/01/10 10:20:24;;;;;;;25.90;22.73;;;8.50;79.40;;;;;;6253601;28;20486;-62
2022/01/10 10:23:50;;;;;;;28.60;22.80;;;8.00;80.30;;;;;;6252567;28;20557;-63
2022/01/10 10:26:54;;;;;;;31.43;22.10;;;7.60;81.00;;;;;;6251412;28;20475;-63
2022/01/10 10:30:04;;;;;;;29.40;22.83;;;7.30;82.10;;;;;;6249769;28;20475;-63
2022/01/10 10:33:17;;;;;;;28.20;23.00;;;7.10;82.90;;;;;;6254364;28;20491;-64
2022/01/10 10:36:20;;;;;;;28.00;23.80;;;7.00;83.90;;;;;;6252782;28;20972;-63
2022/01/10 10:39:26;;;;;;;34.43;25.90;;;6.90;84.60;;;;;;6252094;28;20467;-63
2022/01/10 10:42:30;;;;;;;31.30;24.50;;;7.00;85.20;;;;;;6252132;28;20594;-63
2022/01/10 10:45:34;;;;;;;35.40;27.00;;;6.80;85.40;;;;;;6248662;28;20470;-62
2022/01/10 10:48:40;;;;;;;31.83;25.93;;;6.60;85.90;;;;;;6252064;28;20534;-63
2022/01/10 10:51:45;;;;;;;39.33;27.70;;;6.50;86.80;;;;;;6251859;28;20475;-63
2022/01/10 10:54:48;;;;;;;35.13;25.03;;;6.40;87.40;;;;;;6252075;28;20482;-63
2022/01/10 10:57:52;;;;;;;29.87;26.67;;;6.30;87.90;;;;;;6255692;28;20467;-62
2022/01/10 11:00:55;;;;;;;30.57;25.73;;;6.10;89.10;;;;;;6251438;28;20479;-63
2022/01/10 11:04:00;;;;;;;33.40;27.83;;;6.20;89.70;;;;;;6252073;28;20971;-62
2022/01/10 11:07:04;;;;;;;33.93;26.40;;;6.00;89.60;;;;;;6251120;28;20794;-62
2022/01/10 11:10:08;;;;;;;33.57;26.80;;;5.90;90.10;;;;;;6252091;28;20795;-62
2022/01/10 11:13:13;;;;;;;31.73;25.17;;;5.90;90.30;;;;;;6251611;28;20474;-63
2022/01/10 11:16:16;;;;;;;27.50;24.80;;;6.00;90.70;;;;;;6252521;28;20471;-66
2022/01/10 11:19:25;;;;;;;39.90;26.00;;;5.90;90.50;;;;;;6251288;28;20481;-64
2022/01/10 11:22:31;;;;;;;33.70;25.30;;;6.00;90.50;;;;;;6251351;28;20474;-64
2022/01/10 11:25:36;;;;;;;34.20;26.30;;;6.10;90.60;;;;;;6251299;28;20446;-65
2022/01/10 11:28:48;;;;;;;35.60;24.40;;;6.10;90.90;;;;;;6252064;28;20467;-64
2022/01/10 11:31:51;;;;;;;28.67;23.10;;;6.20;91.00;;;;;;6251566;28;20463;-64
2022/01/10 11:35:05;;;;;;;31.43;24.90;;;6.30;90.60;;;;;;6251774;28;20475;-64
2022/01/10 11:38:24;;;;;;;26.87;23.13;;;6.30;90.40;;;;;;6252818;28;20916;-64
2022/01/10 11:41:30;;;;;;;31.03;26.23;;;6.40;90.50;;;;;;6252962;28;20494;-64
2022/01/10 11:44:33;;;;;;;33.60;24.90;;;6.40;90.40;;;;;;6252445;28;20467;-64
2022/01/10 11:48:17;;;;;;;31.20;25.23;;;6.40;90.70;;;;;;6251782;28;20490;-64
2022/01/10 11:51:24;;;;;;;34.63;26.17;;;6.40;90.60;;;;;;6252403;28;20529;-64
2022/01/10 11:54:29;;;;;;;28.43;24.30;;;6.50;90.60;;;;;;6251752;28;20471;-65
2022/01/10 11:57:35;;;;;;;30.37;25.33;;;7.00;90.30;;;;;;6258147;28;20474;-65
2022/01/10 12:00:38;;;;;;;31.37;24.70;;;7.60;88.70;;;;;;6274558;28;20478;-65
2022/01/10 12:03:43;;;;;;;38.60;26.70;;;8.60;86.80;;;;;;6265891;28;20483;-65
2022/01/10 12:06:50;;;;;;;28.83;24.77;;;11.30;80.30;;;;;;6249212;28;20486;-66
2022/01/10 12:09:53;;;;;;;31.57;24.90;;;12.90;69.90;;;;;;6248995;28;20500;-67
2022/01/10 12:13:02;;;;;;;28.80;25.77;;;13.10;65.30;;;;;;6248788;28;20475;-67
2022/01/10 12:16:06;;;;;;;26.97;22.67;;;14.50;61.70;;;;;;6248981;28;20467;-67
2022/01/10 12:19:10;;;;;;;26.97;22.90;;;14.40;57.10;;;;;;6249868;28;21953;-66
2022/01/10 12:22:15;;;;;;;31.60;26.07;;;14.50;56.50;;;;;;6248327;28;20475;-61
2022/01/10 12:25:19;;;;;;;31.90;24.23;;;15.40;56.80;;;;;;6241079;28;20526;-61
2022/01/10 12:28:23;;;;;;;33.20;25.67;;;17.40;51.50;;;;;;6231999;28;20463;-61
2022/01/10 12:31:28;;;;;;;35.93;23.70;;;17.70;48.30;;;;;;6228603;28;20810;-61
2022/01/10 12:34:31;;;;;;;27.17;23.07;;;20.20;45.20;;;;;;6227248;28;20459;-61
2022/01/10 12:37:35;;;;;;;31.20;25.00;;;21.80;39.70;;;;;;6216478;28;20212;-61
2022/01/10 12:40:39;;;;;;;27.23;24.60;;;22.40;36.80;;;;;;6244202;28;20239;-61
2022/01/10 12:43:42;;;;;;;27.57;24.97;;;23.70;33.80;;;;;;6248327;28;20228;-61
2022/01/10 12:46:45;;;;;;;27.60;24.83;;;24.40;33.30;;;;;;6246935;28;20235;-62
2022/01/10 12:49:49;;;;;;;28.80;26.13;;;25.60;30.70;;;;;;6248003;28;20534;-62
2022/01/10 12:52:55;;;;;;;32.83;26.03;;;26.90;28.70;;;;;;6247233;28;20220;-62
2022/01/10 12:55:58;;;;;;;28.70;25.60;;;25.70;28.20;;;;;;6248140;28;20235;-62
2022/01/10 12:59:01;;;;;;;28.77;24.57;;;23.90;29.50;;;;;;6242295;28;20221;-62
2022/01/10 13:02:06;;;;;;;25.37;22.77;;;22.20;30.50;;;;;;6225487;28;20228;-63
2022/01/10 13:05:14;;;;;;;24.13;21.57;;;20.10;32.70;;;;;;6238787;28;20239;-63
2022/01/10 13:08:19;;;;;;;25.87;23.37;;;18.70;35.00;;;;;;6225205;28;20460;-62
2022/01/10 13:11:30;;;;;;;25.73;21.63;;;17.60;37.10;;;;;;6228613;28;20487;-62
2022/01/10 13:14:36;;;;;;;23.20;19.53;;;16.50;38.80;;;;;;6229280;28;20463;-62
2022/01/10 13:17:41;;;;;;;22.37;19.93;;;15.30;40.30;;;;;;6229663;28;20490;-62
2022/01/10 13:20:44;;;;;;;31.50;19.00;;;14.60;41.80;;;;;;6229144;28;20490;-62
2022/01/10 13:24:13;;;;;;;14.90;12.50;;;14.60;42.90;;;;;;6239198;28;20475;-62
2022/01/10 13:27:22;;;;;;;8.33;6.70;;;14.80;42.20;;;;;;6252638;28;20475;-61
2022/01/10 13:30:26;;;;;;;3.40;3.17;;;15.10;40.30;;;;;;6249573;28;20473;-62
2022/01/10 13:33:37;;;;;;;2.40;1.77;;;15.60;39.00;;;;;;6232184;28;20472;-62
2022/01/10 13:36:43;;;;;;;1.23;1.10;;;17.00;36.90;;;;;;6231133;28;20468;-62
2022/01/10 13:39:59;;;;;;;1.23;0.87;;;16.80;36.30;;;;;;6229709;28;20498;-62
2022/01/10 13:43:06;;;;;;;2.70;1.10;;;15.90;36.20;;;;;;6244474;28;20480;-61
2022/01/10 13:46:18;;;;;;;1.63;0.70;;;14.90;37.20;;;;;;6229749;28;20519;-61
2022/01/10 13:49:27;;;;;;;2.00;1.03;;;13.90;39.10;;;;;;6244064;28;20490;-61
2022/01/10 13:52:30;;;;;;;1.83;1.20;;;13.20;40.80;;;;;;6230302;28;20455;-61
2022/01/10 13:55:36;;;;;;;0.87;0.87;;;12.50;41.40;;;;;;6230034;28;20452;-61
2022/01/10 13:58:43;;;;;;;0.80;0.67;;;12.10;42.40;;;;;;6250127;28;20727;-61
2022/01/10 14:01:46;;;;;;;2.20;1.10;;;11.80;43.50;;;;;;6229393;28;20857;-61
2022/01/10 14:04:49;;;;;;;2.03;1.83;;;11.50;43.90;;;;;;6243500;28;20466;-62
2022/01/10 14:07:54;;;;;;;1.03;0.67;;;11.30;44.70;;;;;;6232315;28;20467;-62
2022/01/10 14:11:01;;;;;;;1.77;0.77;;;11.00;45.30;;;;;;6230099;28;20813;-62
2022/01/10 14:14:06;;;;;;;1.40;1.03;;;10.80;45.50;;;;;;6229359;28;20986;-62
2022/01/10 14:17:09;;;;;;;1.13;0.80;;;10.50;46.20;;;;;;6230262;28;20468;-62
2022/01/10 14:20:12;;;;;;;0.73;0.73;;;10.30;46.90;;;;;;6228414;28;20822;-62
2022/01/10 14:23:16;;;;;;;2.30;1.10;;;10.10;47.40;;;;;;6230182;28;20476;-62
2022/01/10 14:26:21;;;;;;;0.80;0.70;;;9.90;48.80;;;;;;6229036;28;20460;-61
2022/01/10 14:29:24;;;;;;;2.13;1.00;;;9.70;49.40;;;;;;6230093;28;20472;-61
2022/01/10 14:32:27;;;;;;;1.10;1.00;;;9.50;49.70;;;;;;6243688;28;20803;-61
2022/01/10 14:35:30;;;;;;;1.87;1.23;;;9.40;50.10;;;;;;6227595;28;20478;-62
2022/01/10 14:38:34;;;;;;;2.40;1.00;;;9.30;50.70;;;;;;6227697;28;20951;-62
2022/01/10 14:41:39;;;;;;;1.97;0.80;;;9.20;50.90;;;;;;6229189;28;20563;-62
2022/01/10 14:44:43;;;;;;;4.50;1.63;;;9.10;51.20;;;;;;6224999;28;20822;-60
2022/01/10 14:47:46;;;;;;;5.97;2.30;;;9.10;51.70;;;;;;6229136;28;20476;-61
2022/01/10 14:50:49;;;;;;;3.27;1.30;;;9.00;52.30;;;;;;6229595;28;20979;-61
2022/01/10 14:53:53;;;;;;;2.60;1.33;;;8.90;52.40;;;;;;6229001;28;21050;-63
2022/01/10 14:56:57;;;;;;;1.13;1.00;;;8.70;52.50;;;;;;6236830;28;20467;-62
2022/01/10 15:00:00;;;;;;;3.63;1.70;;;8.60;53.10;;;;;;6250572;28;20489;-63
2022/01/10 15:03:03;;;;;;;2.63;1.60;;;8.50;53.80;;;;;;6248734;28;20471;-63
2022/01/10 15:06:10;;;;;;;1.73;1.63;;;8.50;54.20;;;;;;6239777;28;20829;-63
2022/01/10 15:09:13;;;;;;;1.30;1.20;;;8.40;55.00;;;;;;6229178;28;20477;-63
2022/01/10 15:12:18;;;;;;;4.30;1.30;;;8.30;55.30;;;;;;6227883;28;20971;-63
2022/01/10 15:15:21;;;;;;;5.80;3.10;;;8.30;55.60;;;;;;6228876;28;20800;-63
2022/01/10 15:18:24;;;;;;;3.30;2.87;;;8.30;55.40;;;;;;6228094;28;20468;-63
2022/01/10 15:21:27;;;;;;;8.07;3.00;;;8.20;55.20;;;;;;6242619;28;20472;-63
2022/01/10 15:24:30;;;;;;;4.43;2.13;;;8.10;55.40;;;;;;6230080;28;20523;-61
2022/01/10 15:27:35;;;;;;;2.60;1.60;;;8.00;56.00;;;;;;6241737;28;20475;-62
2022/01/10 15:30:39;;;;;;;4.03;2.90;;;7.90;56.70;;;;;;6251005;28;20478;-62
2022/01/10 15:33:42;;;;;;;1.90;1.70;;;7.90;57.70;;;;;;6228620;28;20472;-61
2022/01/10 15:36:49;;;;;;;6.67;2.33;;;7.80;57.50;;;;;;6236364;28;20506;-64
2022/01/10 15:39:59;;;;;;;4.87;1.90;;;7.80;57.50;;;;;;6249707;28;20494;-62
2022/01/10 15:43:04;;;;;;;1.53;1.27;;;7.70;57.40;;;;;;6239749;28;20475;-63
2022/01/10 15:46:07;;;;;;;2.40;1.63;;;7.50;57.70;;;;;;6237355;28;20549;-62
2022/01/10 15:49:10;;;;;;;5.10;2.40;;;7.30;58.10;;;;;;6242406;28;20570;-63
2022/01/10 15:52:15;;;;;;;4.57;2.70;;;7.30;58.50;;;;;;6251065;28;20500;-63
2022/01/10 15:55:20;;;;;;;3.10;2.80;;;7.20;59.00;;;;;;6237447;28;20773;-64